sensor_id;sensor_type;location;lat;lon;timestamp;pressure;altitude;pressure_sealevel;temperature;humidity
63535;BME280;55128;50.230;18.944;2022-12-01T00:04:35;99468.66;;;1.33;74.45
63535;BME280;55128;50.230;18.944;2022-12-01T00:09:35;99455.66;;;1.48;73.59
63535;BME280;55128;50.230;18.944;2022-12-01T00:14:54;99459.97;;;1.46;74.09
63535;BME280;55128;50.230;18.944;2022-12-01T00:20:00;99466.97;;;1.46;74.35
63535;BME280;55128;50.230;18.944;2022-12-01T00:25:00;99467.03;;;1.64;74.06
63535;BME280;55128;50.230;18.944;2022-12-01T00:30:01;99466.22;;;1.81;73.53
63535;BME280;55128;50.230;18.944;2022-12-01T00:35:02;99479.34;;;1.88;72.96
63535;BME280;55128;50.230;18.944;2022-12-01T00:40:04;99467.13;;;1.95;72.89
63535;BME280;55128;50.230;18.944;2022-12-01T00:45:05;99468.91;;;2.04;72.37
63535;BME280;55128;50.230;18.944;2022-12-01T00:50:07;99466.28;;;2.10;72.66
63535;BME280;55128;50.230;18.944;2022-12-01T00:55:08;99459.31;;;2.07;72.36
63535;BME280;55128;50.230;18.944;2022-12-01T01:00:09;99460.16;;;1.99;72.68
63535;BME280;55128;50.230;18.944;2022-12-01T01:05:10;99463.66;;;2.10;72.38
63535;BME280;55128;50.230;18.944;2022-12-01T01:10:11;99455.81;;;2.10;72.19
63535;BME280;55128;50.230;18.944;2022-12-01T01:15:12;99456.63;;;1.87;72.84
63535;BME280;55128;50.230;18.944;2022-12-01T01:20:12;99455.78;;;1.88;73.43
63535;BME280;55128;50.230;18.944;2022-12-01T01:25:13;99456.63;;;1.87;73.81
63535;BME280;55128;50.230;18.944;2022-12-01T01:30:14;99452.31;;;2.03;73.29
63535;BME280;55128;50.230;18.944;2022-12-01T01:35:14;99442.66;;;1.79;73.89
63535;BME280;55128;50.230;18.944;2022-12-01T01:40:15;99445.28;;;1.91;73.39
63535;BME280;55128;50.230;18.944;2022-12-01T01:45:22;99438.34;;;1.93;73.48
63535;BME280;55128;50.230;18.944;2022-12-01T01:50:25;99446.16;;;1.87;74.24
63535;BME280;55128;50.230;18.944;2022-12-01T01:55:32;99426.97;;;1.85;74.17
63535;BME280;55128;50.230;18.944;2022-12-01T02:00:34;99422.59;;;1.87;74.22
63535;BME280;55128;50.230;18.944;2022-12-01T02:05:36;99414.75;;;1.84;74.62
63535;BME280;55128;50.230;18.944;2022-12-01T02:16:11;99422.59;;;1.81;74.42
63535;BME280;55128;50.230;18.944;2022-12-01T02:26:43;99427.00;;;2.04;74.02
63535;BME280;55128;50.230;18.944;2022-12-01T02:36:52;99422.63;;;2.06;74.35
63535;BME280;55128;50.230;18.944;2022-12-01T02:42:49;99432.25;;;2.04;74.26
63535;BME280;55128;50.230;18.944;2022-12-01T02:47:43;99420.00;;;1.95;75.12
63535;BME280;55128;50.230;18.944;2022-12-01T02:52:44;99415.63;;;1.83;74.95
63535;BME280;55128;50.230;18.944;2022-12-01T02:57:45;99413.94;;;2.07;74.48
63535;BME280;55128;50.230;18.944;2022-12-01T03:03:09;99413.03;;;1.92;74.67
63535;BME280;55128;50.230;18.944;2022-12-01T03:18:45;99398.13;;;1.74;75.96
63535;BME280;55128;50.230;18.944;2022-12-01T03:23:57;99392.91;;;1.78;75.84
63535;BME280;55128;50.230;18.944;2022-12-01T03:29:13;99386.84;;;1.88;75.55
63535;BME280;55128;50.230;18.944;2022-12-01T03:34:23;99385.97;;;1.92;75.57
63535;BME280;55128;50.230;18.944;2022-12-01T03:39:29;99380.72;;;1.95;74.90
63535;BME280;55128;50.230;18.944;2022-12-01T03:44:43;99385.06;;;1.84;75.43
63535;BME280;55128;50.230;18.944;2022-12-01T03:49:46;99384.22;;;2.00;74.96
63535;BME280;55128;50.230;18.944;2022-12-01T03:59:58;99388.59;;;2.07;75.28
63535;BME280;55128;50.230;18.944;2022-12-01T04:04:59;99389.47;;;2.09;74.38
63535;BME280;55128;50.230;18.944;2022-12-01T04:09:59;99379.81;;;1.76;75.46
63535;BME280;55128;50.230;18.944;2022-12-01T04:15:11;99372.00;;;1.91;75.48
63535;BME280;55128;50.230;18.944;2022-12-01T04:20:13;99376.38;;;1.85;75.65
63535;BME280;55128;50.230;18.944;2022-12-01T04:25:14;99366.78;;;1.90;75.75
63535;BME280;55128;50.230;18.944;2022-12-01T04:30:15;99362.38;;;1.87;75.65
63535;BME280;55128;50.230;18.944;2022-12-01T04:35:16;99367.63;;;1.81;75.87
63535;BME280;55128;50.230;18.944;2022-12-01T04:40:16;99367.63;;;1.81;76.16
63535;BME280;55128;50.230;18.944;2022-12-01T04:45:18;99379.00;;;1.88;75.47
63535;BME280;55128;50.230;18.944;2022-12-01T04:50:18;99383.31;;;1.80;76.02
63535;BME280;55128;50.230;18.944;2022-12-01T04:55:19;99370.25;;;1.98;75.72
63535;BME280;55128;50.230;18.944;2022-12-01T05:00:19;99380.75;;;2.07;75.42
63535;BME280;55128;50.230;18.944;2022-12-01T05:05:20;99381.63;;;2.29;75.34
63535;BME280;55128;50.230;18.944;2022-12-01T05:10:21;99384.25;;;2.26;73.94
63535;BME280;55128;50.230;18.944;2022-12-01T05:15:21;99393.00;;;2.25;74.08
63535;BME280;55128;50.230;18.944;2022-12-01T05:20:23;99393.84;;;2.18;74.51
63535;BME280;55128;50.230;18.944;2022-12-01T05:25:43;99376.38;;;2.02;74.59
63535;BME280;55128;50.230;18.944;2022-12-01T05:30:43;99391.22;;;2.06;74.73
63535;BME280;55128;50.230;18.944;2022-12-01T05:35:44;99384.22;;;1.94;74.72
63535;BME280;55128;50.230;18.944;2022-12-01T05:40:54;99391.22;;;2.06;74.80
63535;BME280;55128;50.230;18.944;2022-12-01T05:45:56;99381.63;;;2.17;74.11
63535;BME280;55128;50.230;18.944;2022-12-01T05:50:57;99378.13;;;2.06;74.13
63535;BME280;55128;50.230;18.944;2022-12-01T05:55:57;99379.00;;;2.06;74.62
63535;BME280;55128;50.230;18.944;2022-12-01T06:00:58;99382.47;;;2.10;74.69
63535;BME280;55128;50.230;18.944;2022-12-01T06:05:59;99392.97;;;2.05;74.51
63535;BME280;55128;50.230;18.944;2022-12-01T06:11:00;99398.19;;;2.11;74.42
63535;BME280;55128;50.230;18.944;2022-12-01T06:16:03;99405.19;;;2.11;74.58
63535;BME280;55128;50.230;18.944;2022-12-01T06:21:05;99408.69;;;2.08;74.84
63535;BME280;55128;50.230;18.944;2022-12-01T06:26:05;99416.53;;;2.13;74.92
63535;BME280;55128;50.230;18.944;2022-12-01T06:31:06;99415.69;;;2.22;74.40
63535;BME280;55128;50.230;18.944;2022-12-01T06:36:07;99413.91;;;2.11;75.09
63535;BME280;55128;50.230;18.944;2022-12-01T06:41:09;99407.81;;;2.25;74.18
63535;BME280;55128;50.230;18.944;2022-12-01T06:46:09;99415.66;;;2.34;73.77
63535;BME280;55128;50.230;18.944;2022-12-01T06:51:10;99413.94;;;2.33;74.47
63535;BME280;55128;50.230;18.944;2022-12-01T06:56:10;99422.66;;;2.32;73.75
63535;BME280;55128;50.230;18.944;2022-12-01T07:01:11;99421.78;;;2.28;73.96
63535;BME280;55128;50.230;18.944;2022-12-01T07:06:12;99418.31;;;2.22;74.09
63535;BME280;55128;50.230;18.944;2022-12-01T07:11:13;99415.69;;;2.28;74.08
63535;BME280;55128;50.230;18.944;2022-12-01T07:16:15;99427.03;;;2.25;73.67
63535;BME280;55128;50.230;18.944;2022-12-01T07:21:16;99434.00;;;2.11;74.37
63535;BME280;55128;50.230;18.944;2022-12-01T07:26:17;99429.66;;;2.30;74.05
63535;BME280;55128;50.230;18.944;2022-12-01T07:31:18;99435.75;;;2.30;74.08
63535;BME280;55128;50.230;18.944;2022-12-01T07:36:19;99433.13;;;2.30;73.84
63535;BME280;55128;50.230;18.944;2022-12-01T07:41:19;99438.38;;;2.17;74.20
63535;BME280;55128;50.230;18.944;2022-12-01T07:46:21;99441.00;;;2.03;74.45
63535;BME280;55128;50.230;18.944;2022-12-01T07:51:24;99451.47;;;2.03;74.65
63535;BME280;55128;50.230;18.944;2022-12-01T07:56:24;99442.69;;;2.01;74.44
63535;BME280;55128;50.230;18.944;2022-12-01T08:01:25;99440.06;;;1.88;75.77
63535;BME280;55128;50.230;18.944;2022-12-01T08:06:26;99444.47;;;1.97;75.24
63535;BME280;55128;50.230;18.944;2022-12-01T08:11:28;99444.47;;;2.12;74.91
63535;BME280;55128;50.230;18.944;2022-12-01T08:16:29;99447.94;;;2.10;74.68
63535;BME280;55128;50.230;18.944;2022-12-01T08:21:30;99449.69;;;2.02;74.69
63535;BME280;55128;50.230;18.944;2022-12-01T08:26:31;99441.88;;;2.14;74.49
63535;BME280;55128;50.230;18.944;2022-12-01T08:31:32;99448.84;;;2.15;74.55
63535;BME280;55128;50.230;18.944;2022-12-01T08:36:35;99444.47;;;2.05;75.17
63535;BME280;55128;50.230;18.944;2022-12-01T08:41:35;99443.56;;;2.04;75.05
63535;BME280;55128;50.230;18.944;2022-12-01T08:46:36;99449.69;;;2.02;74.97
63535;BME280;55128;50.230;18.944;2022-12-01T08:51:37;99457.56;;;1.97;75.31
63535;BME280;55128;50.230;18.944;2022-12-01T08:56:40;99454.91;;;1.86;75.23
63535;BME280;55128;50.230;18.944;2022-12-01T09:01:41;99452.28;;;1.89;76.00
63535;BME280;55128;50.230;18.944;2022-12-01T09:06:55;99446.19;;;1.90;75.35
63535;BME280;55128;50.230;18.944;2022-12-01T09:11:55;99448.81;;;1.98;75.32
63535;BME280;55128;50.230;18.944;2022-12-01T09:16:56;99448.78;;;1.89;75.34
63535;BME280;55128;50.230;18.944;2022-12-01T09:21:57;99440.91;;;1.72;75.66
63535;BME280;55128;50.230;18.944;2022-12-01T09:26:58;99433.97;;;1.91;75.87
63535;BME280;55128;50.230;18.944;2022-12-01T09:32:00;99440.06;;;1.87;75.82
63535;BME280;55128;50.230;18.944;2022-12-01T09:37:00;99436.59;;;2.02;75.35
63535;BME280;55128;50.230;18.944;2022-12-01T09:42:06;99414.81;;;2.10;75.13
63535;BME280;55128;50.230;18.944;2022-12-01T09:47:13;99415.66;;;1.94;75.31
63535;BME280;55128;50.230;18.944;2022-12-01T09:52:18;99416.50;;;1.88;76.13
63535;BME280;55128;50.230;18.944;2022-12-01T09:57:51;99407.78;;;1.89;75.52
63535;BME280;55128;50.230;18.944;2022-12-01T10:03:05;99409.56;;;2.09;75.08
63535;BME280;55128;50.230;18.944;2022-12-01T10:08:18;99413.03;;;1.99;75.28
63535;BME280;55128;50.230;18.944;2022-12-01T10:13:26;99406.06;;;2.07;75.01
63535;BME280;55128;50.230;18.944;2022-12-01T10:18:55;99409.56;;;2.15;74.74
63535;BME280;55128;50.230;18.944;2022-12-01T10:29:26;99401.72;;;2.26;73.91
63535;BME280;55128;50.230;18.944;2022-12-01T10:34:31;99400.81;;;2.38;73.45
63535;BME280;55128;50.230;18.944;2022-12-01T10:39:36;99393.84;;;2.15;73.35
63535;BME280;55128;50.230;18.944;2022-12-01T10:44:37;99388.63;;;2.37;73.38
63535;BME280;55128;50.230;18.944;2022-12-01T10:49:40;99386.84;;;2.23;72.50
63535;BME280;55128;50.230;18.944;2022-12-01T10:54:40;99391.19;;;1.90;73.78
63535;BME280;55128;50.230;18.944;2022-12-01T10:59:48;99376.38;;;2.08;73.77
63535;BME280;55128;50.230;18.944;2022-12-01T11:05:02;99380.75;;;2.24;73.46
63535;BME280;55128;50.230;18.944;2022-12-01T11:10:14;99370.28;;;2.07;73.46
63535;BME280;55128;50.230;18.944;2022-12-01T11:15:38;99373.75;;;1.99;73.92
63535;BME280;55128;50.230;18.944;2022-12-01T11:20:39;99361.53;;;1.98;73.60
63535;BME280;55128;50.230;18.944;2022-12-01T11:25:40;99366.72;;;1.74;74.53
63535;BME280;55128;50.230;18.944;2022-12-01T11:30:41;99367.66;;;2.03;73.77
63535;BME280;55128;50.230;18.944;2022-12-01T11:35:46;99365.03;;;1.84;73.56
63535;BME280;55128;50.230;18.944;2022-12-01T11:40:51;99367.63;;;1.90;73.95
63535;BME280;55128;50.230;18.944;2022-12-01T11:45:53;99372.03;;;2.05;73.82
63535;BME280;55128;50.230;18.944;2022-12-01T11:56:16;99386.81;;;1.75;74.20
63535;BME280;55128;50.230;18.944;2022-12-01T12:49:16;99370.22;;;1.63;74.42
63535;BME280;55128;50.230;18.944;2022-12-01T12:59:41;99373.75;;;1.86;73.93
63535;BME280;55128;50.230;18.944;2022-12-01T13:04:52;99372.84;;;1.72;74.27
63535;BME280;55128;50.230;18.944;2022-12-01T13:10:00;99382.44;;;1.78;73.63
63535;BME280;55128;50.230;18.944;2022-12-01T13:15:11;99388.56;;;1.89;74.17
63535;BME280;55128;50.230;18.944;2022-12-01T13:20:14;99384.19;;;1.68;74.54
63535;BME280;55128;50.230;18.944;2022-12-01T13:25:31;99383.28;;;1.69;74.32
63535;BME280;55128;50.230;18.944;2022-12-01T13:30:33;99385.94;;;1.73;74.08
63535;BME280;55128;50.230;18.944;2022-12-01T13:35:36;99381.56;;;1.74;73.89
63535;BME280;55128;50.230;18.944;2022-12-01T13:40:38;99381.53;;;1.63;73.70
63535;BME280;55128;50.230;18.944;2022-12-01T13:45:39;99384.19;;;1.66;73.78
63535;BME280;55128;50.230;18.944;2022-12-01T14:11:28;99388.59;;;1.84;73.34
63535;BME280;55128;50.230;18.944;2022-12-01T14:21:50;99387.69;;;1.85;72.39
63535;BME280;55128;50.230;18.944;2022-12-01T14:26:51;99380.72;;;1.95;72.45
63535;BME280;55128;50.230;18.944;2022-12-01T14:36:57;99392.91;;;1.70;73.28
63535;BME280;55128;50.230;18.944;2022-12-01T14:42:18;99390.28;;;1.67;73.39
63535;BME280;55128;50.230;18.944;2022-12-01T14:47:49;99385.06;;;1.79;73.34
63535;BME280;55128;50.230;18.944;2022-12-01T14:53:28;99384.22;;;1.89;73.06
63535;BME280;55128;50.230;18.944;2022-12-01T14:58:30;99388.59;;;1.93;72.33
63535;BME280;55128;50.230;18.944;2022-12-01T15:03:43;99379.84;;;1.71;72.71
63535;BME280;55128;50.230;18.944;2022-12-01T15:09:04;99376.34;;;1.82;72.57
63535;BME280;55128;50.230;18.944;2022-12-01T15:14:26;99393.78;;;1.60;73.17
63535;BME280;55128;50.230;18.944;2022-12-01T15:19:36;99382.38;;;1.51;73.28
63535;BME280;55128;50.230;18.944;2022-12-01T15:24:37;99384.16;;;1.54;73.57
63535;BME280;55128;50.230;18.944;2022-12-01T15:29:42;99383.22;;;1.44;73.15
63535;BME280;55128;50.230;18.944;2022-12-01T15:34:49;99390.19;;;1.36;73.48
63535;BME280;55128;50.230;18.944;2022-12-01T15:39:56;99382.34;;;1.30;74.01
63535;BME280;55128;50.230;18.944;2022-12-01T15:45:11;99377.16;;;1.47;73.56
63535;BME280;55128;50.230;18.944;2022-12-01T15:55:32;99384.13;;;1.49;73.26
63535;BME280;55128;50.230;18.944;2022-12-01T16:00:34;99378.00;;;1.46;73.34
63535;BME280;55128;50.230;18.944;2022-12-01T16:05:35;99383.25;;;1.46;73.42
63535;BME280;55128;50.230;18.944;2022-12-01T16:10:36;99378.94;;;1.54;72.85
63535;BME280;55128;50.230;18.944;2022-12-01T16:15:42;99380.63;;;1.46;73.41
63535;BME280;55128;50.230;18.944;2022-12-01T16:20:43;99378.03;;;1.47;73.33
63535;BME280;55128;50.230;18.944;2022-12-01T16:25:45;99378.03;;;1.47;73.27
63535;BME280;55128;50.230;18.944;2022-12-01T16:30:47;99373.63;;;1.39;73.66
63535;BME280;55128;50.230;18.944;2022-12-01T16:35:48;99378.03;;;1.53;73.74
63535;BME280;55128;50.230;18.944;2022-12-01T16:40:58;99378.03;;;1.53;73.35
63535;BME280;55128;50.230;18.944;2022-12-01T16:46:02;99382.44;;;1.64;73.35
63535;BME280;55128;50.230;18.944;2022-12-01T16:51:09;99378.94;;;1.62;73.05
63535;BME280;55128;50.230;18.944;2022-12-01T16:56:13;99376.31;;;1.66;72.81
63535;BME280;55128;50.230;18.944;2022-12-01T17:01:16;99380.69;;;1.58;72.90
63535;BME280;55128;50.230;18.944;2022-12-01T17:06:18;99382.38;;;1.51;73.24
63535;BME280;55128;50.230;18.944;2022-12-01T17:11:19;99378.94;;;1.59;73.17
63535;BME280;55128;50.230;18.944;2022-12-01T17:16:20;99377.19;;;1.61;73.09
63535;BME280;55128;50.230;18.944;2022-12-01T17:21:20;99383.25;;;1.53;73.27
63535;BME280;55128;50.230;18.944;2022-12-01T17:26:21;99377.16;;;1.58;72.74
63535;BME280;55128;50.230;18.944;2022-12-01T17:31:22;99385.88;;;1.52;72.48
63535;BME280;55128;50.230;18.944;2022-12-01T17:36:23;99379.72;;;1.41;73.12
63535;BME280;55128;50.230;18.944;2022-12-01T17:41:23;99370.16;;;1.40;73.37
63535;BME280;55128;50.230;18.944;2022-12-01T17:46:31;99375.41;;;1.47;72.78
63535;BME280;55128;50.230;18.944;2022-12-01T17:51:32;99367.56;;;1.47;73.00
63535;BME280;55128;50.230;18.944;2022-12-01T17:56:33;99367.56;;;1.49;73.03
63535;BME280;55128;50.230;18.944;2022-12-01T18:01:34;99368.41;;;1.40;73.48
63535;BME280;55128;50.230;18.944;2022-12-01T18:06:34;99368.41;;;1.34;73.83
63535;BME280;55128;50.230;18.944;2022-12-01T18:11:35;99370.16;;;1.33;73.37
63535;BME280;55128;50.230;18.944;2022-12-01T18:16:36;99386.66;;;1.29;73.78
63535;BME280;55128;50.230;18.944;2022-12-01T18:21:37;99391.94;;;1.28;73.94
63535;BME280;55128;50.230;18.944;2022-12-01T18:26:39;99389.34;;;1.37;73.57
63535;BME280;55128;50.230;18.944;2022-12-01T18:31:40;99378.00;;;1.41;73.22
63535;BME280;55128;50.230;18.944;2022-12-01T18:36:41;99376.25;;;1.40;73.01
63535;BME280;55128;50.230;18.944;2022-12-01T18:41:42;99370.13;;;1.29;73.09
63535;BME280;55128;50.230;18.944;2022-12-01T18:46:43;99369.22;;;1.24;72.99
63535;BME280;55128;50.230;18.944;2022-12-01T18:51:44;99368.41;;;1.34;72.75
63535;BME280;55128;50.230;18.944;2022-12-01T18:56:45;99367.56;;;1.41;72.74
63535;BME280;55128;50.230;18.944;2022-12-01T19:01:45;99362.25;;;1.26;72.31
63535;BME280;55128;50.230;18.944;2022-12-01T19:06:47;99370.06;;;1.13;72.92
63535;BME280;55128;50.230;18.944;2022-12-01T19:11:48;99366.66;;;1.36;72.47
63535;BME280;55128;50.230;18.944;2022-12-01T19:16:49;99377.13;;;1.44;72.58
63535;BME280;55128;50.230;18.944;2022-12-01T19:21:49;99368.44;;;1.45;72.46
63535;BME280;55128;50.230;18.944;2022-12-01T19:26:50;99370.16;;;1.38;72.52
63535;BME280;55128;50.230;18.944;2022-12-01T19:31:50;99358.75;;;1.24;72.77
63535;BME280;55128;50.230;18.944;2022-12-01T19:36:51;99361.38;;;1.19;73.21
63535;BME280;55128;50.230;18.944;2022-12-01T19:41:53;99360.56;;;1.37;72.94
63535;BME280;55128;50.230;18.944;2022-12-01T19:46:55;99363.19;;;1.49;72.46
63535;BME280;55128;50.230;18.944;2022-12-01T19:51:56;99363.19;;;1.37;72.86
63535;BME280;55128;50.230;18.944;2022-12-01T19:56:57;99347.50;;;1.43;72.78
63535;BME280;55128;50.230;18.944;2022-12-01T20:01:57;99347.47;;;1.46;72.55
63535;BME280;55128;50.230;18.944;2022-12-01T20:06:58;99353.53;;;1.21;72.90
63535;BME280;55128;50.230;18.944;2022-12-01T20:11:58;99360.44;;;1.06;73.76
63535;BME280;55128;50.230;18.944;2022-12-01T20:16:59;99352.72;;;1.35;73.23
63535;BME280;55128;50.230;18.944;2022-12-01T20:22:00;99358.78;;;1.27;72.76
63535;BME280;55128;50.230;18.944;2022-12-01T20:27:00;99354.38;;;1.13;73.76
63535;BME280;55128;50.230;18.944;2022-12-01T20:32:01;99348.31;;;1.28;73.28
63535;BME280;55128;50.230;18.944;2022-12-01T20:37:03;99344.84;;;1.28;73.31
63535;BME280;55128;50.230;18.944;2022-12-01T20:42:04;99341.31;;;1.16;73.12
63535;BME280;55128;50.230;18.944;2022-12-01T20:47:05;99343.00;;;1.02;73.63
63535;BME280;55128;50.230;18.944;2022-12-01T20:52:06;99346.50;;;1.06;73.91
63535;BME280;55128;50.230;18.944;2022-12-01T20:57:06;99352.59;;;1.00;73.78
63535;BME280;55128;50.230;18.944;2022-12-01T21:02:10;99355.22;;;1.09;73.87
63535;BME280;55128;50.230;18.944;2022-12-01T21:07:11;99348.31;;;1.21;73.46
63535;BME280;55128;50.230;18.944;2022-12-01T21:12:14;99363.13;;;1.23;73.05
63535;BME280;55128;50.230;18.944;2022-12-01T21:17:41;99344.69;;;0.85;74.26
63535;BME280;55128;50.230;18.944;2022-12-01T21:22:47;99348.94;;;0.70;74.62
63535;BME280;55128;50.230;18.944;2022-12-01T21:27:49;99351.56;;;0.75;74.98
63535;BME280;55128;50.230;18.944;2022-12-01T21:32:50;99346.38;;;0.84;73.86
63535;BME280;55128;50.230;18.944;2022-12-01T21:37:57;99354.28;;;0.89;73.91
63535;BME280;55128;50.230;18.944;2022-12-01T21:43:11;99360.41;;;1.00;73.77
63535;BME280;55128;50.230;18.944;2022-12-01T21:48:18;99347.34;;;0.99;73.56
63535;BME280;55128;50.230;18.944;2022-12-01T21:53:19;99344.75;;;1.06;73.05
63535;BME280;55128;50.230;18.944;2022-12-01T21:58:25;99352.47;;;0.78;73.79
63535;BME280;55128;50.230;18.944;2022-12-01T22:03:32;99343.78;;;0.81;73.84
63535;BME280;55128;50.230;18.944;2022-12-01T22:08:37;99347.13;;;0.60;74.42
63535;BME280;55128;50.230;18.944;2022-12-01T22:18:43;99349.94;;;0.97;72.89
63535;BME280;55128;50.230;18.944;2022-12-01T22:23:44;99347.34;;;1.05;72.88
63535;BME280;55128;50.230;18.944;2022-12-01T22:28:46;99338.69;;;1.15;72.40
63535;BME280;55128;50.230;18.944;2022-12-01T22:33:55;99337.84;;;1.22;72.37
63535;BME280;55128;50.230;18.944;2022-12-01T22:39:00;99335.13;;;0.94;72.90
63535;BME280;55128;50.230;18.944;2022-12-01T22:44:00;99323.78;;;0.85;73.17
63535;BME280;55128;50.230;18.944;2022-12-01T22:49:15;99333.31;;;0.84;73.32
63535;BME280;55128;50.230;18.944;2022-12-01T22:54:42;99327.22;;;0.84;73.74
63535;BME280;55128;50.230;18.944;2022-12-01T22:59:44;99327.22;;;0.77;73.90
63535;BME280;55128;50.230;18.944;2022-12-01T23:04:48;99331.63;;;0.97;73.07
63535;BME280;55128;50.230;18.944;2022-12-01T23:09:51;99316.81;;;0.88;73.24
63535;BME280;55128;50.230;18.944;2022-12-01T23:14:54;99315.88;;;0.80;73.73
63535;BME280;55128;50.230;18.944;2022-12-01T23:25:22;99320.22;;;0.76;74.16
63535;BME280;55128;50.230;18.944;2022-12-01T23:30:23;99321.13;;;0.77;73.28
63535;BME280;55128;50.230;18.944;2022-12-01T23:35:24;99305.41;;;0.74;73.54
63535;BME280;55128;50.230;18.944;2022-12-01T23:40:31;99312.41;;;0.84;73.75
63535;BME280;55128;50.230;18.944;2022-12-01T23:45:32;99307.97;;;0.63;74.35
63535;BME280;55128;50.230;18.944;2022-12-01T23:50:32;99305.38;;;0.65;74.32
63535;BME280;55128;50.230;18.944;2022-12-01T23:55:33;99305.41;;;0.68;74.11
